Bottle Hollow, Utah
Current Conditions -  °F | °C
As of 1:53 PM on Monday 24 Nov 2014 (Local Time) from KVEL Reporting Station
Clear Clear  
Wind Chill: 30°   Ceiling: Unl
Heat Index: 40°   Visibility: 10mi
Dew Point:   Wind: 20mph
Humidity: 28%   Direction: 340°NNW
Pressure: 30.21"   Gusts: 31mph
Location:  40.2958°N, 109.84°W
Report Text: KVEL 242053Z AUTO 34017G27KT 10SM CLR 04/M13 A3021 RMK AO2 PK WND 36036/2010 SLP250 T00441128 51010
Loading
Personal Weather Stations






























Interactive Weather Map New forecast layout! Learn more

10-Day Weather Forecast

Advertisements
Track Severe Weather on mobile